sensor_id;sensor_type;location;lat;lon;timestamp;pressure;altitude;pressure_sealevel;temperature;humidity
76990;BME280;65924;47.250;11.332;2023-06-01T00:03:14;94966.41;;;18.49;59.62
76990;BME280;65924;47.250;11.332;2023-06-01T00:13:16;94977.58;;;18.29;62.16
76990;BME280;65924;47.250;11.332;2023-06-01T00:23:19;94982.18;;;18.14;61.31
76990;BME280;65924;47.250;11.332;2023-06-01T00:33:20;94979.59;;;17.89;62.61
76990;BME280;65924;47.250;11.332;2023-06-01T00:43:23;94974.09;;;17.85;62.22
76990;BME280;65924;47.250;11.332;2023-06-01T00:53:24;94970.98;;;17.68;62.71
76990;BME280;65924;47.250;11.332;2023-06-01T01:03:25;94971.49;;;17.45;63.12
76990;BME280;65924;47.250;11.332;2023-06-01T01:13:37;94976.77;;;17.30;61.82
76990;BME280;65924;47.250;11.332;2023-06-01T01:34:05;94982.98;;;16.81;62.95
76990;BME280;65924;47.250;11.332;2023-06-01T01:44:06;94980.96;;;16.54;62.97
76990;BME280;65924;47.250;11.332;2023-06-01T01:54:07;94981.77;;;16.59;64.00
76990;BME280;65924;47.250;11.332;2023-06-01T02:04:10;94980.18;;;16.60;66.12
76990;BME280;65924;47.250;11.332;2023-06-01T02:14:11;94981.02;;;16.38;63.00
76990;BME280;65924;47.250;11.332;2023-06-01T02:24:12;94977.33;;;16.26;64.44
76990;BME280;65924;47.250;11.332;2023-06-01T02:34:13;94984.79;;;16.23;64.71
76990;BME280;65924;47.250;11.332;2023-06-01T02:44:13;94984.31;;;16.21;64.99
76990;BME280;65924;47.250;11.332;2023-06-01T02:54:14;94983.41;;;16.19;64.17
76990;BME280;65924;47.250;11.332;2023-06-01T03:04:14;94984.41;;;16.19;65.68
76990;BME280;65924;47.250;11.332;2023-06-01T03:14:16;94980.41;;;15.85;64.55
76990;BME280;65924;47.250;11.332;2023-06-01T03:24:17;94984.67;;;15.83;64.53
76990;BME280;65924;47.250;11.332;2023-06-01T03:34:18;94988.85;;;15.69;66.39
76990;BME280;65924;47.250;11.332;2023-06-01T03:44:20;94992.30;;;15.90;67.47
76990;BME280;65924;47.250;11.332;2023-06-01T03:54:21;94996.91;;;15.82;65.02
76990;BME280;65924;47.250;11.332;2023-06-01T04:04:25;95003.79;;;15.75;66.24
76990;BME280;65924;47.250;11.332;2023-06-01T04:14:28;94995.92;;;15.77;65.91
76990;BME280;65924;47.250;11.332;2023-06-01T04:24:29;94993.37;;;15.83;68.34
76990;BME280;65924;47.250;11.332;2023-06-01T04:34:29;94994.55;;;15.79;67.54
76990;BME280;65924;47.250;11.332;2023-06-01T04:44:31;94994.98;;;16.00;67.59
76990;BME280;65924;47.250;11.332;2023-06-01T04:54:33;94985.49;;;16.27;67.39
76990;BME280;65924;47.250;11.332;2023-06-01T05:04:33;94988.45;;;16.47;68.39
76990;BME280;65924;47.250;11.332;2023-06-01T05:14:34;94987.70;;;16.52;66.92
76990;BME280;65924;47.250;11.332;2023-06-01T05:24:35;94988.11;;;16.55;67.45
76990;BME280;65924;47.250;11.332;2023-06-01T05:34:36;94980.83;;;16.67;67.15
76990;BME280;65924;47.250;11.332;2023-06-01T05:44:40;94972.06;;;16.81;67.03
76990;BME280;65924;47.250;11.332;2023-06-01T05:54:40;94965.15;;;17.01;67.44
76990;BME280;65924;47.250;11.332;2023-06-01T06:04:42;94962.29;;;17.20;66.10
76990;BME280;65924;47.250;11.332;2023-06-01T06:14:44;94966.27;;;17.38;66.18
76990;BME280;65924;47.250;11.332;2023-06-01T06:24:46;94966.70;;;17.45;64.85
76990;BME280;65924;47.250;11.332;2023-06-01T06:34:47;94960.61;;;17.53;63.04
76990;BME280;65924;47.250;11.332;2023-06-01T06:44:48;94956.16;;;17.76;60.54
76990;BME280;65924;47.250;11.332;2023-06-01T06:54:48;94946.04;;;18.09;59.40
76990;BME280;65924;47.250;11.332;2023-06-01T07:04:49;94935.02;;;18.42;59.02
76990;BME280;65924;47.250;11.332;2023-06-01T07:14:50;94926.84;;;18.75;57.84
76990;BME280;65924;47.250;11.332;2023-06-01T07:24:50;94917.29;;;19.05;57.07
76990;BME280;65924;47.250;11.332;2023-06-01T07:34:51;94912.05;;;19.31;56.18
76990;BME280;65924;47.250;11.332;2023-06-01T07:44:52;94897.91;;;19.57;56.03
76990;BME280;65924;47.250;11.332;2023-06-01T07:54:53;94885.70;;;19.89;55.28
76990;BME280;65924;47.250;11.332;2023-06-01T08:04:54;94870.06;;;20.18;54.00
76990;BME280;65924;47.250;11.332;2023-06-01T08:14:57;94857.92;;;20.48;52.68
76990;BME280;65924;47.250;11.332;2023-06-01T08:24:58;94850.94;;;20.78;52.33
76990;BME280;65924;47.250;11.332;2023-06-01T08:35:01;94840.63;;;21.03;52.10
76990;BME280;65924;47.250;11.332;2023-06-01T08:45:04;94838.39;;;21.36;53.70
76990;BME280;65924;47.250;11.332;2023-06-01T08:55:06;94827.09;;;21.70;52.33
76990;BME280;65924;47.250;11.332;2023-06-01T09:05:07;94815.55;;;22.08;53.72
76990;BME280;65924;47.250;11.332;2023-06-01T09:15:12;94797.61;;;22.44;51.76
76990;BME280;65924;47.250;11.332;2023-06-01T09:25:16;94787.10;;;22.68;50.54
76990;BME280;65924;47.250;11.332;2023-06-01T09:35:38;94776.48;;;22.93;49.65
76990;BME280;65924;47.250;11.332;2023-06-01T09:45:39;94770.42;;;23.34;48.64
76990;BME280;65924;47.250;11.332;2023-06-01T09:55:59;94758.57;;;23.72;48.52
76990;BME280;65924;47.250;11.332;2023-06-01T10:06:01;94748.00;;;24.10;46.64
76990;BME280;65924;47.250;11.332;2023-06-01T10:16:03;94731.49;;;24.44;46.01
76990;BME280;65924;47.250;11.332;2023-06-01T10:26:09;94724.52;;;24.95;45.14
76990;BME280;65924;47.250;11.332;2023-06-01T10:36:12;94715.24;;;25.37;43.40
76990;BME280;65924;47.250;11.332;2023-06-01T10:46:35;94709.67;;;25.71;42.04
76990;BME280;65924;47.250;11.332;2023-06-01T10:56:36;94703.02;;;26.07;42.21
76990;BME280;65924;47.250;11.332;2023-06-01T11:06:41;94689.85;;;26.41;39.93
76990;BME280;65924;47.250;11.332;2023-06-01T11:16:43;94680.99;;;26.62;39.44
76990;BME280;65924;47.250;11.332;2023-06-01T11:26:47;94675.88;;;26.80;39.59
76990;BME280;65924;47.250;11.332;2023-06-01T11:36:49;94660.19;;;27.00;39.74
76990;BME280;65924;47.250;11.332;2023-06-01T11:46:55;94659.45;;;26.91;40.62
76990;BME280;65924;47.250;11.332;2023-06-01T11:56:56;94649.42;;;26.81;40.37
76990;BME280;65924;47.250;11.332;2023-06-01T12:07:06;94639.11;;;26.88;40.02
76990;BME280;65924;47.250;11.332;2023-06-01T12:17:07;94629.73;;;26.90;40.56
76990;BME280;65924;47.250;11.332;2023-06-01T12:27:16;94624.39;;;26.80;41.69
76990;BME280;65924;47.250;11.332;2023-06-01T12:37:20;94609.02;;;26.89;41.44
76990;BME280;65924;47.250;11.332;2023-06-01T12:47:21;94594.45;;;26.73;43.68
76990;BME280;65924;47.250;11.332;2023-06-01T12:57:21;94583.13;;;26.82;40.56
76990;BME280;65924;47.250;11.332;2023-06-01T13:07:22;94571.16;;;26.94;40.32
76990;BME280;65924;47.250;11.332;2023-06-01T13:17:24;94562.64;;;27.14;38.66
76990;BME280;65924;47.250;11.332;2023-06-01T13:27:25;94559.23;;;27.39;40.21
76990;BME280;65924;47.250;11.332;2023-06-01T13:37:25;94554.19;;;27.58;40.94
76990;BME280;65924;47.250;11.332;2023-06-01T13:47:26;94546.83;;;27.70;41.57
76990;BME280;65924;47.250;11.332;2023-06-01T13:57:27;94543.44;;;27.63;41.08
76990;BME280;65924;47.250;11.332;2023-06-01T14:07:28;94538.73;;;27.46;42.01
76990;BME280;65924;47.250;11.332;2023-06-01T14:17:29;94536.77;;;27.16;40.83
76990;BME280;65924;47.250;11.332;2023-06-01T14:27:29;94535.95;;;27.04;39.79
76990;BME280;65924;47.250;11.332;2023-06-01T14:37:30;94543.69;;;27.01;42.73
76990;BME280;65924;47.250;11.332;2023-06-01T14:47:31;94540.88;;;26.99;40.75
76990;BME280;65924;47.250;11.332;2023-06-01T14:57:32;94547.36;;;27.07;43.65
76990;BME280;65924;47.250;11.332;2023-06-01T15:07:33;94545.91;;;26.97;45.68
76990;BME280;65924;47.250;11.332;2023-06-01T15:17:33;94561.95;;;26.70;50.87
76990;BME280;65924;47.250;11.332;2023-06-01T15:27:34;94557.83;;;26.32;50.73
76990;BME280;65924;47.250;11.332;2023-06-01T15:37:35;94541.52;;;25.77;46.03
76990;BME280;65924;47.250;11.332;2023-06-01T15:47:35;94547.27;;;25.49;49.42
76990;BME280;65924;47.250;11.332;2023-06-01T15:57:36;94550.73;;;25.24;48.86
76990;BME280;65924;47.250;11.332;2023-06-01T16:07:37;94553.77;;;25.10;53.04
76990;BME280;65924;47.250;11.332;2023-06-01T16:17:37;94553.54;;;24.92;54.37
76990;BME280;65924;47.250;11.332;2023-06-01T16:27:38;94559.01;;;24.80;53.82
76990;BME280;65924;47.250;11.332;2023-06-01T16:37:38;94562.56;;;24.63;49.21
76990;BME280;65924;47.250;11.332;2023-06-01T16:47:39;94561.31;;;24.49;47.88
76990;BME280;65924;47.250;11.332;2023-06-01T16:57:39;94560.30;;;24.36;48.42
76990;BME280;65924;47.250;11.332;2023-06-01T17:07:40;94559.21;;;24.32;45.53
76990;BME280;65924;47.250;11.332;2023-06-01T17:17:42;94559.70;;;24.25;46.06
76990;BME280;65924;47.250;11.332;2023-06-01T17:27:42;94561.36;;;24.23;47.89
76990;BME280;65924;47.250;11.332;2023-06-01T17:37:47;94566.16;;;24.16;47.45
76990;BME280;65924;47.250;11.332;2023-06-01T17:47:48;94565.36;;;24.03;46.89
76990;BME280;65924;47.250;11.332;2023-06-01T17:57:48;94570.41;;;23.99;47.98
76990;BME280;65924;47.250;11.332;2023-06-01T18:07:49;94578.48;;;23.91;48.51
76990;BME280;65924;47.250;11.332;2023-06-01T18:17:49;94598.25;;;23.76;48.47
76990;BME280;65924;47.250;11.332;2023-06-01T18:27:50;94614.89;;;23.69;48.60
76990;BME280;65924;47.250;11.332;2023-06-01T18:37:51;94623.96;;;23.51;47.47
76990;BME280;65924;47.250;11.332;2023-06-01T18:47:51;94631.77;;;23.35;50.55
76990;BME280;65924;47.250;11.332;2023-06-01T18:57:52;94643.91;;;23.29;50.71
76990;BME280;65924;47.250;11.332;2023-06-01T19:07:52;94652.74;;;23.19;51.52
76990;BME280;65924;47.250;11.332;2023-06-01T19:17:53;94653.67;;;23.05;53.15
76990;BME280;65924;47.250;11.332;2023-06-01T19:27:54;94656.02;;;22.81;53.45
76990;BME280;65924;47.250;11.332;2023-06-01T19:38:03;94662.66;;;22.65;53.45
76990;BME280;65924;47.250;11.332;2023-06-01T19:48:22;94675.08;;;22.57;53.13
76990;BME280;65924;47.250;11.332;2023-06-01T19:58:28;94682.13;;;22.48;52.87
76990;BME280;65924;47.250;11.332;2023-06-01T20:08:29;94689.80;;;22.46;53.96
76990;BME280;65924;47.250;11.332;2023-06-01T20:18:30;94693.33;;;22.41;54.29
76990;BME280;65924;47.250;11.332;2023-06-01T20:28:51;94700.48;;;22.40;55.64
76990;BME280;65924;47.250;11.332;2023-06-01T20:38:57;94699.04;;;22.36;55.92
76990;BME280;65924;47.250;11.332;2023-06-01T20:49:00;94710.95;;;22.32;55.18
76990;BME280;65924;47.250;11.332;2023-06-01T20:59:09;94719.61;;;22.19;55.11
76990;BME280;65924;47.250;11.332;2023-06-01T21:09:11;94720.89;;;21.92;56.98
76990;BME280;65924;47.250;11.332;2023-06-01T21:19:13;94732.50;;;21.63;57.43
76990;BME280;65924;47.250;11.332;2023-06-01T21:29:14;94730.19;;;21.38;57.80
76990;BME280;65924;47.250;11.332;2023-06-01T21:39:14;94729.47;;;21.08;58.28
76990;BME280;65924;47.250;11.332;2023-06-01T21:49:15;94731.38;;;20.77;57.62
76990;BME280;65924;47.250;11.332;2023-06-01T21:59:16;94728.42;;;20.44;58.19
76990;BME280;65924;47.250;11.332;2023-06-01T22:09:17;94737.09;;;20.32;58.92
76990;BME280;65924;47.250;11.332;2023-06-01T22:19:17;94745.34;;;20.18;59.77
76990;BME280;65924;47.250;11.332;2023-06-01T22:29:18;94748.02;;;20.26;60.63
76990;BME280;65924;47.250;11.332;2023-06-01T22:39:18;94749.59;;;20.22;60.45
76990;BME280;65924;47.250;11.332;2023-06-01T22:49:19;94751.52;;;20.19;62.99
76990;BME280;65924;47.250;11.332;2023-06-01T22:59:25;94754.41;;;20.11;58.94
76990;BME280;65924;47.250;11.332;2023-06-01T23:09:25;94754.84;;;19.90;60.21
76990;BME280;65924;47.250;11.332;2023-06-01T23:19:27;94761.31;;;19.73;59.94
76990;BME280;65924;47.250;11.332;2023-06-01T23:29:32;94757.88;;;19.65;61.08
76990;BME280;65924;47.250;11.332;2023-06-01T23:39:32;94759.75;;;19.49;61.47
76990;BME280;65924;47.250;11.332;2023-06-01T23:49:33;94758.61;;;19.36;62.10
76990;BME280;65924;47.250;11.332;2023-06-01T23:59:35;94753.95;;;19.21;61.03
